Latest Coastal Weather Observations for South Channel Island

IDV60701

Issued at 7:52 pm EDT Sunday 15 December 2019 (issued every 10 minutes, with the page automatically refreshed every 10 minutes)

About coastal observations | Map of coastal stations | Coastal observations for VIC | Marine services | Other Formats
Station Details ID: 086344 Name: SOUTH CHANNEL ISLAND Lat: -38.31 Lon: 144.80 Height: 9.0 m
Data from the previous 72 hours. | See also: Recent months at South Channel Island
Date/Time
EDT
Wind Sea
Height
m
Swell Vis
km
Cloud Weather Temp
°C
Press
hPa
Rain since
9am
mm
Dir  Spd
kts
Gust
kts
Height
m
Period
s
Dir
15/07:30pm SSW 17 21 - - - - - - - - - -
15/07:00pm SSW 17 20 - - - - - - - - - -
15/06:30pm SSW 16 18 - - - - - - - - - -
15/06:00pm SSW 16 18 - - - - - - - - - -
15/05:30pm S 15 17 - - - - - - - - - -
15/05:00pm SSW 15 17 - - - - - - - - - -
15/04:30pm SW 12 15 - - - - - - - - - -
15/04:00pm WSW 12 16 - - - - - - - - - -
15/03:30pm WSW 15 18 - - - - - - - - - -
15/03:00pm W 17 19 - - - - - - - - - -
15/02:30pm W 17 21 - - - - - - - - - -
15/02:00pm W 16 18 - - - - - - - - - -
15/01:30pm W 15 20 - - - - - - - - - -
15/01:00pm WNW 10 11 - - - - - - - - - -
15/12:30pm W 11 15 - - - - - - - - - -
15/12:00pm WSW 16 19 - - - - - - - - - -
15/11:30am W 16 17 - - - - - - - - - -
15/11:00am W 15 17 - - - - - - - - - -
15/10:30am W 13 16 - - - - - - - - - -
15/10:00am W 15 17 - - - - - - - - - -
15/09:30am W 16 19 - - - - - - - - - -
15/09:00am NW 15 17 - - - - - - - - - -
15/08:30am WNW 19 21 - - - - - - - - - -
15/08:00am WNW 15 17 - - - - - - - - - -
15/07:30am WNW 14 16 - - - - - - - - - -
15/07:00am WNW 13 15 - - - - - - - - - -
15/06:30am W 13 16 - - - - - - - - - -
15/06:00am W 15 16 - - - - - - - - - -
15/05:30am W 17 19 - - - - - - - - - -
15/05:00am W 14 17 - - - - - - - - - -
15/04:30am W 14 16 - - - - - - - - - -
15/04:00am WNW 14 15 - - - - - - - - - -
15/03:30am NW 13 16 - - - - - - - - - -
15/03:00am NNW 12 14 - - - - - - - - - -
15/02:30am NW 10 15 - - - - - - - - - -
15/02:00am NW 8 10 - - - - - - - - - -
15/01:30am W 8 9 - - - - - - - - - -
15/01:00am W 6 7 - - - - - - - - - -
15/12:30am SSW 5 7 - - - - - - - - - -
15/12:00am SSW 4 5 - - - - - - - - - -
 
Date/Time
EDT
Wind Sea
Height
m
Swell Vis
km
Cloud Weather Temp
°C
Press
hPa
Rain since
9am
mm
Dir  Spd
kts
Gust
kts
Height
m
Period
s
Dir
14/11:30pm SSW 7 8 - - - - - - - - - -
14/11:00pm SSW 5 6 - - - - - - - - - -
14/10:30pm SSW 5 5 - - - - - - - - - -
14/10:00pm S 7 8 - - - - - - - - - -
14/09:30pm SSW 6 7 - - - - - - - - - -
14/09:00pm SSW 9 11 - - - - - - - - - -
14/08:30pm SSW 10 12 - - - - - - - - - -
14/08:00pm SSW 11 14 - - - - - - - - - -
14/07:30pm SSW 13 15 - - - - - - - - - -
14/07:00pm SSW 12 15 - - - - - - - - - -
14/06:30pm SSW 11 13 - - - - - - - - - -
14/06:00pm SSW 13 16 - - - - - - - - - -
14/05:30pm SSW 16 19 - - - - - - - - - -
14/05:00pm SSW 15 18 - - - - - - - - - -
14/04:30pm SSW 15 18 - - - - - - - - - -
14/04:00pm SSW 16 18 - - - - - - - - - -
14/03:30pm SSW 16 18 - - - - - - - - - -
14/03:00pm SSW 16 18 - - - - - - - - - -
14/02:30pm SSW 15 17 - - - - - - - - - -
14/02:00pm SW 15 19 - - - - - - - - - -
14/01:30pm SSW 16 17 - - - - - - - - - -
14/01:00pm SSW 13 15 - - - - - - - - - -
14/12:30pm SW 11 14 - - - - - - - - - -
14/12:00pm W 11 12 - - - - - - - - - -
14/11:30am W 13 15 - - - - - - - - - -
14/11:00am W 15 17 - - - - - - - - - -
14/10:30am W 15 17 - - - - - - - - - -
14/10:00am W 15 17 - - - - - - - - - -
14/09:30am W 17 20 - - - - - - - - - -
14/09:00am W 17 19 - - - - - - - - - -
14/08:30am W 16 18 - - - - - - - - - -
14/08:00am W 18 21 - - - - - - - - - -
14/07:30am W 18 20 - - - - - - - - - -
14/07:00am W 18 21 - - - - - - - - - -
14/06:30am W 17 20 - - - - - - - - - -
14/06:00am W 16 19 - - - - - - - - - -
14/05:30am WNW 17 20 - - - - - - - - - -
14/05:00am W 19 21 - - - - - - - - - -
14/04:30am W 20 22 - - - - - - - - - -
14/04:00am WNW 16 19 - - - - - - - - - -
14/03:30am W 17 20 - - - - - - - - - -
14/03:00am WSW 15 18 - - - - - - - - - -
14/02:30am W 20 24 - - - - - - - - - -
14/02:00am W 19 21 - - - - - - - - - -
14/01:30am W 20 24 - - - - - - - - - -
14/01:00am W 21 25 - - - - - - - - - -
14/12:30am W 20 23 - - - - - - - - - -
14/12:00am W 18 21 - - - - - - - - - -
 
Date/Time
EDT
Wind Sea
Height
m
Swell Vis
km
Cloud Weather Temp
°C
Press
hPa
Rain since
9am
mm
Dir  Spd
kts
Gust
kts
Height
m
Period
s
Dir
13/11:30pm WNW 19 21 - - - - - - - - - -
13/11:00pm WNW 17 19 - - - - - - - - - -
13/10:30pm W 19 21 - - - - - - - - - -
13/10:00pm W 18 21 - - - - - - - - - -
13/09:30pm W 16 19 - - - - - - - - - -
13/09:00pm WSW 19 21 - - - - - - - - - -
13/08:30pm W 18 22 - - - - - - - - - -
13/08:24pm W 16 22 - - - - - - - - - -
13/08:00pm SW 9 11 - - - - - - - - - -
13/07:30pm SW 9 11 - - - - - - - - - -
13/07:00pm SW 11 14 - - - - - - - - - -
13/06:30pm SW 10 13 - - - - - - - - - -
13/06:00pm SSW 10 12 - - - - - - - - - -
13/05:30pm SSW 10 13 - - - - - - - - - -
13/05:00pm SSW 10 12 - - - - - - - - - -
13/04:30pm SSW 12 14 - - - - - - - - - -
13/04:00pm SSW 12 15 - - - - - - - - - -
13/03:30pm SSW 11 14 - - - - - - - - - -
13/03:00pm SW 11 12 - - - - - - - - - -
13/02:30pm SW 7 8 - - - - - - - - - -
13/02:00pm WSW 7 8 - - - - - - - - - -
13/01:30pm W 9 10 - - - - - - - - - -
13/01:00pm W 11 14 - - - - - - - - - -
13/12:30pm WSW 13 15 - - - - - - - - - -
13/12:00pm WSW 14 17 - - - - - - - - - -
13/11:30am W 16 19 - - - - - - - - - -
13/11:00am W 16 18 - - - - - - - - - -
13/10:30am W 14 16 - - - - - - - - - -
13/10:00am W 13 17 - - - - - - - - - -
13/09:30am W 16 19 - - - - - - - - - -
13/09:00am W 17 19 - - - - - - - - - -
13/08:30am W 16 18 - - - - - - - - - -
13/08:00am W 16 18 - - - - - - - - - -
13/07:30am W 15 17 - - - - - - - - - -
13/07:00am W 14 16 - - - - - - - - - -
13/06:30am W 15 17 - - - - - - - - - -
13/06:00am W 14 16 - - - - - - - - - -
13/05:30am W 12 16 - - - - - - - - - -
13/05:00am WSW 14 19 - - - - - - - - - -
13/04:30am W 15 17 - - - - - - - - - -
13/04:00am WSW 14 18 - - - - - - - - - -
13/03:30am WSW 15 18 - - - - - - - - - -
13/03:00am SW 15 18 - - - - - - - - - -
13/02:30am SW 16 19 - - - - - - - - - -
13/02:00am SW 16 19 - - - - - - - - - -
13/01:30am SW 16 20 - - - - - - - - - -
13/01:00am SW 16 20 - - - - - - - - - -
13/12:30am SW 18 23 - - - - - - - - - -
13/12:00am SW 19 22 - - - - - - - - - -
 
Date/Time
EDT
Wind Sea
Height
m
Swell Vis
km
Cloud Weather Temp
°C
Press
hPa
Rain since
9am
mm
Dir  Spd
kts
Gust
kts
Height
m
Period
s
Dir
12/11:30pm SW 20 25 - - - - - - - - - -
12/11:00pm SW 20 25 - - - - - - - - - -
12/10:30pm SSW 21 25 - - - - - - - - - -
12/10:00pm SSW 23 27 - - - - - - - - - -
12/09:30pm SSW 21 24 - - - - - - - - - -
12/09:00pm SSW 21 27 - - - - - - - - - -
12/08:30pm SSW 21 25 - - - - - - - - - -
12/08:00pm SSW 22 26 - - - - - - - - - -

Other formats

Comma delimited format used in spreadsheet applications
http://www.bom.gov.au/fwo/IDV60701/IDV60701.94853.axf

JavaScript Object Notation format (JSON) in row-major order
http://www.bom.gov.au/fwo/IDV60701/IDV60701.94853.json

Data quality

Most of these data are generated automatically and are frequently updated. Quality checks on data are not normally performed. It is possible for incorrect values to appear. Refer to information at About Latest Weather Observations and please check the disclaimer before using these data.